createdAt,value
2023-05-25T00:00:34.279Z,85.28
2023-05-25T00:01:38.657Z,85.30
2023-05-25T00:02:43.233Z,85.38
2023-05-25T00:03:47.296Z,85.31
2023-05-25T00:05:05.633Z,85.19
2023-05-25T00:06:08.716Z,85.08
2023-05-25T00:07:12.968Z,85.01
2023-05-25T00:08:17.264Z,85.05
2023-05-25T00:09:21.687Z,85.06
2023-05-25T00:10:25.893Z,85.29
2023-05-25T00:11:30.249Z,85.49
2023-05-25T00:12:34.508Z,85.53
2023-05-25T00:13:38.854Z,85.47
2023-05-25T00:14:43.154Z,85.78
2023-05-25T00:15:47.518Z,85.87
2023-05-25T00:17:05.907Z,86.24
2023-05-25T00:18:09.042Z,86.69
2023-05-25T00:19:13.160Z,86.98
2023-05-25T00:20:17.515Z,87.07
2023-05-25T00:21:21.819Z,87.25
2023-05-25T00:22:26.139Z,87.35
2023-05-25T00:23:30.410Z,87.43
2023-05-25T00:24:37.759Z,87.32
2023-05-25T00:25:41.230Z,87.14
2023-05-25T00:26:45.486Z,87.17
2023-05-25T00:27:49.770Z,87.17
2023-05-25T00:28:54.024Z,87.17
2023-05-25T00:29:58.281Z,87.28
2023-05-25T00:31:02.723Z,87.53
2023-05-25T00:32:06.912Z,87.41
2023-05-25T00:33:11.308Z,87.36
2023-05-25T00:34:15.559Z,87.23
2023-05-25T00:35:19.867Z,87.12
2023-05-25T00:36:24.210Z,87.00
2023-05-25T00:37:28.498Z,86.94
2023-05-25T00:38:32.798Z,86.88
2023-05-25T00:39:37.223Z,87.10
2023-05-25T00:40:41.511Z,87.33
2023-05-25T00:41:45.774Z,87.70
2023-05-25T00:42:50.179Z,88.02
2023-05-25T00:43:54.415Z,88.23
2023-05-25T00:44:58.760Z,88.09
2023-05-25T00:46:03.021Z,87.97
2023-05-25T00:47:07.472Z,88.06
2023-05-25T00:48:11.733Z,88.09
2023-05-25T00:49:16.072Z,88.12
2023-05-25T00:50:20.387Z,88.27
2023-05-25T00:51:24.754Z,88.12
2023-05-25T00:52:29.063Z,88.35
2023-05-25T00:53:33.300Z,88.45
2023-05-25T00:54:37.693Z,88.35
2023-05-25T00:55:42.116Z,88.20
2023-05-25T00:56:46.295Z,88.20
2023-05-25T00:57:50.512Z,88.25
2023-05-25T00:58:54.835Z,88.24
2023-05-25T00:59:59.211Z,88.54
2023-05-25T01:01:03.500Z,88.83
2023-05-25T01:02:08.062Z,89.09
2023-05-25T01:03:12.384Z,89.23
2023-05-25T01:04:16.500Z,89.19
2023-05-25T01:05:20.771Z,89.09
2023-05-25T01:06:25.142Z,89.16
2023-05-25T01:07:29.467Z,89.28
2023-05-25T01:08:33.792Z,89.15
2023-05-25T01:09:41.132Z,89.02
2023-05-25T01:10:58.468Z,88.89
2023-05-25T01:12:01.674Z,89.14
2023-05-25T01:13:05.944Z,89.35
2023-05-25T01:14:10.272Z,89.29
2023-05-25T01:15:14.540Z,89.28
2023-05-25T01:16:18.861Z,89.13
2023-05-25T01:17:23.237Z,89.00
2023-05-25T01:18:27.603Z,89.11
2023-05-25T01:19:31.884Z,89.02
2023-05-25T01:20:36.255Z,89.19
2023-05-25T01:21:43.488Z,89.44
2023-05-25T01:22:46.899Z,89.79
2023-05-25T01:23:51.235Z,90.13
2023-05-25T01:24:55.608Z,90.23
2023-05-25T01:25:59.853Z,90.10
2023-05-25T01:27:04.222Z,89.95
2023-05-25T01:28:08.451Z,89.89
2023-05-25T01:29:12.846Z,89.68
2023-05-25T01:30:17.216Z,89.51
2023-05-25T01:31:21.558Z,89.44
2023-05-25T01:32:25.782Z,89.28
2023-05-25T01:33:30.135Z,89.14
2023-05-25T01:34:34.490Z,89.02
2023-05-25T01:35:38.752Z,88.90
2023-05-25T01:36:43.079Z,88.79
2023-05-25T01:37:47.366Z,88.61
2023-05-25T01:38:51.682Z,88.55
2023-05-25T01:39:55.948Z,88.49
2023-05-25T01:41:00.324Z,88.47
2023-05-25T01:42:04.588Z,88.44
2023-05-25T01:43:08.978Z,88.71
2023-05-25T01:44:13.311Z,88.74
2023-05-25T01:45:17.618Z,88.74
2023-05-25T01:46:21.954Z,88.72
2023-05-25T01:47:26.228Z,88.69
2023-05-25T01:48:30.599Z,88.67
2023-05-25T01:49:34.852Z,88.69
2023-05-25T01:50:39.083Z,88.67
2023-05-25T01:51:43.477Z,88.69
2023-05-25T01:52:47.734Z,88.69
2023-05-25T01:53:52.086Z,88.80
2023-05-25T01:54:56.364Z,88.88
2023-05-25T01:56:00.731Z,88.94
2023-05-25T01:57:05.002Z,88.93
2023-05-25T01:58:23.372Z,88.93
2023-05-25T01:59:26.701Z,88.94
2023-05-25T02:00:30.900Z,89.07
2023-05-25T02:01:35.283Z,89.34
2023-05-25T02:02:39.659Z,89.35
2023-05-25T02:03:46.865Z,89.42
2023-05-25T02:04:50.398Z,89.58
2023-05-25T02:05:54.588Z,89.60
2023-05-25T02:06:58.947Z,89.67
2023-05-25T02:08:03.263Z,89.87
2023-05-25T02:09:07.587Z,89.93
2023-05-25T02:10:11.798Z,90.08
2023-05-25T02:11:16.132Z,90.12
2023-05-25T02:12:20.523Z,90.08
2023-05-25T02:13:24.852Z,90.02
2023-05-25T02:14:29.165Z,90.03
2023-05-25T02:15:33.401Z,89.98
2023-05-25T02:16:37.835Z,90.09
2023-05-25T02:17:42.138Z,90.03
2023-05-25T02:18:46.412Z,89.96
2023-05-25T02:19:50.701Z,89.96
2023-05-25T02:20:55.075Z,89.85
2023-05-25T02:21:59.320Z,89.86
2023-05-25T02:23:03.596Z,89.79
2023-05-25T02:24:08.005Z,89.74
2023-05-25T02:25:12.357Z,89.71
2023-05-25T02:26:16.632Z,89.72
2023-05-25T02:27:20.908Z,89.71
2023-05-25T02:28:25.290Z,89.73
2023-05-25T02:29:29.597Z,89.70
2023-05-25T02:30:33.975Z,89.80
2023-05-25T02:31:38.318Z,89.98
2023-05-25T02:32:42.571Z,89.98
2023-05-25T02:33:46.976Z,90.01
2023-05-25T02:34:51.290Z,90.06
2023-05-25T02:35:55.552Z,90.13
2023-05-25T02:36:59.887Z,90.14
2023-05-25T02:38:04.230Z,90.17
2023-05-25T02:39:11.539Z,90.28
2023-05-25T02:40:14.944Z,90.48
2023-05-25T02:41:19.239Z,90.76
2023-05-25T02:42:23.514Z,91.16
2023-05-25T02:43:27.810Z,91.33
2023-05-25T02:44:32.174Z,91.33
2023-05-25T02:45:36.539Z,91.29
2023-05-25T02:46:40.767Z,91.33
2023-05-25T02:47:45.149Z,91.34
2023-05-25T02:48:49.282Z,91.35
2023-05-25T02:49:53.692Z,91.36
2023-05-25T02:50:58.027Z,91.31
2023-05-25T02:52:02.324Z,91.27
2023-05-25T02:53:06.682Z,91.27
2023-05-25T02:54:11.018Z,91.32
2023-05-25T02:55:15.296Z,91.27
2023-05-25T02:56:19.641Z,91.33
2023-05-25T02:57:23.890Z,91.42
2023-05-25T02:58:28.243Z,91.54
2023-05-25T02:59:32.476Z,91.58
2023-05-25T03:00:36.873Z,91.64
2023-05-25T03:01:41.058Z,91.79
2023-05-25T03:02:45.402Z,91.98
2023-05-25T03:03:49.759Z,92.17
2023-05-25T03:04:54.114Z,92.26
2023-05-25T03:05:58.334Z,92.22
2023-05-25T03:07:02.672Z,92.20
2023-05-25T03:08:07.022Z,92.42
2023-05-25T03:09:11.384Z,92.66
2023-05-25T03:10:15.735Z,92.78
2023-05-25T03:11:20.006Z,92.89
2023-05-25T03:12:24.294Z,93.02
2023-05-25T03:13:28.624Z,93.13
2023-05-25T03:14:32.931Z,93.28
2023-05-25T03:15:37.238Z,93.27
2023-05-25T03:16:41.564Z,93.21
2023-05-25T03:17:45.936Z,93.25
2023-05-25T03:18:50.168Z,93.38
2023-05-25T03:19:54.520Z,93.38
2023-05-25T03:20:58.836Z,93.30
2023-05-25T03:22:17.235Z,93.18
2023-05-25T03:23:23.473Z,93.03
2023-05-25T03:24:26.745Z,92.94
2023-05-25T03:25:31.008Z,92.83
2023-05-25T03:26:35.267Z,92.78
2023-05-25T03:27:39.618Z,92.68
2023-05-25T03:28:43.950Z,92.57
2023-05-25T03:29:48.271Z,92.50
2023-05-25T03:30:52.619Z,92.44
2023-05-25T03:31:56.880Z,92.35
2023-05-25T03:33:01.315Z,92.28
2023-05-25T03:34:05.526Z,92.20
2023-05-25T03:35:09.963Z,92.15
2023-05-25T03:36:14.304Z,92.09
2023-05-25T03:37:18.560Z,92.04
2023-05-25T03:38:22.923Z,91.99
2023-05-25T03:39:27.401Z,91.95
2023-05-25T03:40:31.593Z,91.90
2023-05-25T03:41:35.834Z,91.92
2023-05-25T03:42:40.213Z,92.00
2023-05-25T03:43:44.474Z,92.05
2023-05-25T03:44:48.840Z,92.06
2023-05-25T03:45:53.182Z,92.09
2023-05-25T03:46:57.479Z,92.09
2023-05-25T03:48:01.790Z,92.14
2023-05-25T03:49:06.036Z,92.20
2023-05-25T03:50:10.426Z,92.27
2023-05-25T03:51:14.781Z,92.22
2023-05-25T03:52:19.195Z,92.31
2023-05-25T03:53:23.418Z,92.33
2023-05-25T03:54:27.715Z,92.44
2023-05-25T03:55:32.037Z,92.59
2023-05-25T03:56:36.394Z,92.78
2023-05-25T03:57:40.674Z,92.94
2023-05-25T03:58:45.097Z,93.04
2023-05-25T03:59:49.358Z,93.20
2023-05-25T04:00:53.644Z,93.32
2023-05-25T04:01:57.925Z,93.30
2023-05-25T04:03:02.289Z,93.46
2023-05-25T04:04:06.615Z,93.44
2023-05-25T04:05:10.801Z,93.52
2023-05-25T04:06:15.148Z,93.45
2023-05-25T04:07:22.360Z,93.44
2023-05-25T04:08:25.838Z,93.42
2023-05-25T04:09:33.172Z,93.36
2023-05-25T04:10:36.673Z,93.39
2023-05-25T04:11:40.984Z,93.38
2023-05-25T04:12:45.227Z,93.35
2023-05-25T04:13:49.578Z,93.35
2023-05-25T04:14:53.783Z,93.36
2023-05-25T04:15:58.275Z,93.38
2023-05-25T04:17:02.420Z,93.36
2023-05-25T04:18:06.851Z,93.49
2023-05-25T04:19:11.189Z,93.70
2023-05-25T04:20:15.425Z,93.84
2023-05-25T04:21:19.763Z,94.00
2023-05-25T04:22:24.073Z,94.32
2023-05-25T04:23:28.408Z,94.62
2023-05-25T04:24:38.665Z,94.80
2023-05-25T04:25:41.646Z,94.67
2023-05-25T04:26:45.853Z,94.64
2023-05-25T04:27:50.118Z,94.54
2023-05-25T04:28:54.525Z,94.83
2023-05-25T04:29:58.800Z,94.86
2023-05-25T04:31:03.136Z,94.97
2023-05-25T04:32:07.521Z,94.95
2023-05-25T04:33:11.934Z,94.88
2023-05-25T04:34:16.237Z,94.81
2023-05-25T04:35:20.521Z,94.71
2023-05-25T04:36:24.823Z,94.66
2023-05-25T04:37:43.140Z,94.60
2023-05-25T04:38:46.303Z,94.53
2023-05-25T04:39:50.611Z,94.47
2023-05-25T04:40:54.954Z,94.42
2023-05-25T04:41:59.193Z,94.37
2023-05-25T04:43:03.555Z,94.34
2023-05-25T04:44:10.064Z,94.35
2023-05-25T04:45:11.962Z,94.36
2023-05-25T04:46:16.407Z,94.31
2023-05-25T04:47:26.758Z,94.25
2023-05-25T04:48:29.655Z,94.38
2023-05-25T04:49:33.979Z,94.77
2023-05-25T04:50:38.252Z,94.90
2023-05-25T04:51:42.718Z,95.17
2023-05-25T04:52:52.956Z,95.33
2023-05-25T04:53:55.965Z,95.72
2023-05-25T04:55:00.294Z,96.14
2023-05-25T04:56:04.638Z,96.15
2023-05-25T04:57:08.913Z,96.31
2023-05-25T04:58:14.700Z,96.57
2023-05-25T04:59:17.620Z,96.70
2023-05-25T05:00:21.929Z,96.66
2023-05-25T05:01:26.238Z,96.46
2023-05-25T05:02:30.608Z,96.75
2023-05-25T05:03:34.900Z,97.24
2023-05-25T05:04:39.169Z,97.60
2023-05-25T05:05:43.869Z,97.51
2023-05-25T05:06:47.858Z,97.40
2023-05-25T05:07:52.273Z,97.41
2023-05-25T05:08:56.525Z,97.33
2023-05-25T05:10:01.012Z,97.16
2023-05-25T05:11:05.296Z,97.15
2023-05-25T05:12:11.985Z,97.25
2023-05-25T05:13:14.063Z,97.24
2023-05-25T05:14:18.350Z,97.15
2023-05-25T05:15:22.669Z,97.11
2023-05-25T05:16:33.166Z,97.06
2023-05-25T05:17:36.278Z,96.93
2023-05-25T05:18:46.436Z,96.91
2023-05-25T05:19:49.310Z,96.86
2023-05-25T05:20:53.683Z,96.94
2023-05-25T05:21:57.932Z,96.99
2023-05-25T05:23:02.290Z,96.95
2023-05-25T05:24:06.626Z,96.83
2023-05-25T05:25:10.971Z,96.94
2023-05-25T05:26:15.536Z,96.85
2023-05-25T05:27:19.690Z,96.84
2023-05-25T05:28:24.060Z,96.82
2023-05-25T05:29:28.378Z,97.00
2023-05-25T05:30:46.849Z,97.05
2023-05-25T05:31:50.045Z,97.09
2023-05-25T05:32:54.188Z,97.18
2023-05-25T05:33:58.508Z,97.06
2023-05-25T05:35:02.751Z,96.93
2023-05-25T05:36:07.125Z,96.93
2023-05-25T05:37:11.555Z,96.96
2023-05-25T05:38:15.962Z,97.08
2023-05-25T05:39:20.263Z,97.00
2023-05-25T05:40:24.527Z,96.95
2023-05-25T05:41:28.943Z,96.97
2023-05-25T05:42:33.192Z,97.09
2023-05-25T05:43:37.573Z,97.00
2023-05-25T05:44:42.061Z,97.13
2023-05-25T05:45:46.620Z,97.08
2023-05-25T05:46:50.868Z,97.28
2023-05-25T05:47:55.086Z,97.45
2023-05-25T05:48:59.419Z,97.53
2023-05-25T05:50:03.813Z,97.55
2023-05-25T05:51:08.082Z,97.56
2023-05-25T05:52:12.486Z,97.58
2023-05-25T05:53:16.830Z,97.53
2023-05-25T05:54:21.088Z,97.44
2023-05-25T05:55:25.430Z,97.24
2023-05-25T05:56:29.756Z,97.04
2023-05-25T05:57:34.068Z,97.03
2023-05-25T05:58:38.518Z,97.04
2023-05-25T05:59:42.783Z,97.20
2023-05-25T06:00:47.225Z,97.27
2023-05-25T06:01:51.495Z,97.22
2023-05-25T06:02:56.022Z,97.12
2023-05-25T06:04:00.351Z,97.03
2023-05-25T06:05:04.615Z,97.10
2023-05-25T06:06:09.066Z,97.10
2023-05-25T06:07:13.217Z,97.11
2023-05-25T06:08:17.684Z,97.14
2023-05-25T06:09:21.922Z,97.10
2023-05-25T06:10:40.230Z,97.01
2023-05-25T06:11:43.542Z,96.84
2023-05-25T06:12:47.863Z,96.72
2023-05-25T06:13:52.146Z,96.59
2023-05-25T06:14:56.533Z,96.38
2023-05-25T06:16:03.852Z,96.21
2023-05-25T06:17:07.357Z,95.99
2023-05-25T06:18:11.603Z,95.84
2023-05-25T06:19:15.845Z,95.64
2023-05-25T06:20:20.249Z,95.45
2023-05-25T06:21:24.482Z,95.33
2023-05-25T06:22:31.919Z,95.22
2023-05-25T06:23:35.392Z,95.13
2023-05-25T06:24:39.659Z,95.10
2023-05-25T06:25:44.272Z,94.99
2023-05-25T06:26:48.403Z,94.74
2023-05-25T06:27:52.837Z,94.53
2023-05-25T06:28:57.085Z,94.32
2023-05-25T06:30:01.392Z,94.17
2023-05-25T06:31:05.776Z,94.03
2023-05-25T06:32:10.238Z,93.83
2023-05-25T06:33:14.522Z,93.77
2023-05-25T06:34:18.831Z,93.70
2023-05-25T06:35:23.246Z,93.68
2023-05-25T06:36:27.593Z,93.72
2023-05-25T06:37:31.895Z,93.74
2023-05-25T06:38:36.292Z,93.70
2023-05-25T06:39:40.717Z,93.66
2023-05-25T06:40:45.051Z,93.56
2023-05-25T06:41:49.349Z,93.40
2023-05-25T06:42:53.895Z,93.26
2023-05-25T06:43:58.157Z,93.05
2023-05-25T06:45:02.534Z,92.98
2023-05-25T06:46:06.856Z,92.94
2023-05-25T06:47:11.255Z,92.77
2023-05-25T06:48:15.755Z,92.62
2023-05-25T06:49:20.037Z,92.50
2023-05-25T06:50:24.428Z,92.41
2023-05-25T06:51:28.798Z,92.40
2023-05-25T06:52:33.097Z,92.45
2023-05-25T06:53:37.455Z,92.51
2023-05-25T06:54:41.843Z,92.45
2023-05-25T06:55:46.354Z,92.42
2023-05-25T06:56:50.569Z,92.39
2023-05-25T06:57:54.855Z,92.32
2023-05-25T06:58:59.180Z,92.24
2023-05-25T07:00:03.508Z,92.02
2023-05-25T07:01:07.971Z,91.78
2023-05-25T07:02:12.310Z,91.41
2023-05-25T07:03:16.560Z,91.32
2023-05-25T07:04:20.894Z,91.54
2023-05-25T07:05:25.243Z,91.88
2023-05-25T07:06:29.614Z,92.02
2023-05-25T07:07:33.931Z,91.88
2023-05-25T07:08:52.373Z,91.59
2023-05-25T07:09:55.745Z,91.17
2023-05-25T07:11:00.152Z,90.86
2023-05-25T07:12:04.408Z,90.72
2023-05-25T07:13:08.728Z,90.62
2023-05-25T07:14:13.137Z,90.58
2023-05-25T07:15:17.526Z,90.52
2023-05-25T07:16:36.093Z,90.26
2023-05-25T07:17:39.336Z,90.08
2023-05-25T07:18:43.596Z,89.84
2023-05-25T07:19:47.890Z,89.65
2023-05-25T07:20:52.238Z,89.56
2023-05-25T07:21:56.713Z,89.48
2023-05-25T07:23:01.009Z,89.39
2023-05-25T07:24:05.468Z,89.17
2023-05-25T07:25:09.722Z,88.98
2023-05-25T07:26:14.074Z,89.08
2023-05-25T07:27:18.393Z,89.24
2023-05-25T07:28:22.715Z,89.44
2023-05-25T07:29:27.113Z,89.45
2023-05-25T07:30:31.554Z,89.43
2023-05-25T07:31:35.998Z,89.21
2023-05-25T07:32:40.289Z,89.01
2023-05-25T07:33:44.602Z,88.86
2023-05-25T07:34:49.039Z,88.86
2023-05-25T07:35:53.359Z,88.93
2023-05-25T07:36:57.801Z,88.85
2023-05-25T07:38:02.227Z,88.68
2023-05-25T07:39:06.579Z,88.72
2023-05-25T07:40:10.928Z,88.49
2023-05-25T07:41:15.356Z,88.03
2023-05-25T07:42:19.640Z,88.00
2023-05-25T07:43:23.944Z,87.56
2023-05-25T07:44:28.316Z,87.27
2023-05-25T07:45:32.628Z,86.95
2023-05-25T07:46:37.100Z,86.81
2023-05-25T07:47:41.361Z,86.77
2023-05-25T07:48:45.716Z,86.73
2023-05-25T07:49:50.114Z,86.33
2023-05-25T07:50:54.453Z,86.40
2023-05-25T07:51:58.819Z,86.56
2023-05-25T07:53:03.099Z,86.71
2023-05-25T07:54:07.555Z,86.88
2023-05-25T07:55:11.904Z,86.43
2023-05-25T07:56:16.259Z,86.07
2023-05-25T07:57:20.561Z,85.92
2023-05-25T07:58:24.945Z,85.92
2023-05-25T07:59:29.311Z,86.10
2023-05-25T08:00:33.785Z,86.33
2023-05-25T08:01:38.057Z,86.51
2023-05-25T08:02:42.683Z,86.47
2023-05-25T08:03:49.589Z,86.19
2023-05-25T08:04:51.246Z,86.14
2023-05-25T08:05:55.654Z,86.17
2023-05-25T08:07:00.010Z,85.93
2023-05-25T08:08:04.331Z,85.84
2023-05-25T08:09:08.754Z,85.69
2023-05-25T08:10:13.147Z,85.55
2023-05-25T08:11:17.615Z,85.39
2023-05-25T08:12:38.594Z,85.50
2023-05-25T08:13:26.360Z,85.59
2023-05-25T08:14:30.707Z,85.53
2023-05-25T08:15:35.048Z,85.35
2023-05-25T08:16:39.381Z,85.01
2023-05-25T08:17:44.088Z,84.76
2023-05-25T08:18:48.213Z,84.65
2023-05-25T08:19:52.722Z,84.09
2023-05-25T08:20:56.958Z,83.74
2023-05-25T08:22:01.344Z,83.61
2023-05-25T08:23:05.706Z,83.00
2023-05-25T08:24:10.015Z,83.09
2023-05-25T08:25:14.364Z,83.34
2023-05-25T08:26:37.933Z,83.59
2023-05-25T08:27:23.092Z,83.56
2023-05-25T08:28:27.508Z,83.71
2023-05-25T08:29:32.026Z,83.66
2023-05-25T08:30:36.304Z,83.43
2023-05-25T08:31:40.803Z,83.28
2023-05-25T08:32:45.140Z,83.15
2023-05-25T08:33:49.425Z,82.91
2023-05-25T08:34:53.873Z,82.40
2023-05-25T08:35:58.138Z,82.30
2023-05-25T08:37:02.634Z,82.58
2023-05-25T08:38:07.020Z,82.80
2023-05-25T08:39:11.309Z,82.99
2023-05-25T08:40:15.667Z,83.04
2023-05-25T08:41:20.025Z,83.05
2023-05-25T08:42:24.434Z,82.51
2023-05-25T08:43:28.876Z,81.70
2023-05-25T08:44:33.272Z,80.85
2023-05-25T08:45:40.581Z,80.74
2023-05-25T08:46:41.990Z,81.16
2023-05-25T08:47:46.301Z,81.09
2023-05-25T08:48:50.855Z,81.45
2023-05-25T08:49:54.972Z,81.25
2023-05-25T08:50:59.293Z,81.28
2023-05-25T08:52:03.638Z,81.71
2023-05-25T08:53:08.013Z,81.85
2023-05-25T08:54:12.360Z,82.27
2023-05-25T08:55:16.723Z,82.46
2023-05-25T08:56:21.185Z,82.37
2023-05-25T08:57:25.481Z,82.07
2023-05-25T08:58:29.856Z,81.87
2023-05-25T08:59:34.293Z,81.94
2023-05-25T09:00:38.609Z,82.03
2023-05-25T09:01:43.009Z,81.97
2023-05-25T09:02:47.553Z,81.86
2023-05-25T09:03:51.727Z,81.53
2023-05-25T09:04:56.004Z,81.23
2023-05-25T09:06:00.372Z,80.83
2023-05-25T09:07:10.454Z,80.36
2023-05-25T09:08:09.204Z,80.20
2023-05-25T09:09:13.527Z,80.17
2023-05-25T09:10:17.953Z,80.12
2023-05-25T09:11:35.202Z,79.85
2023-05-25T09:12:26.647Z,79.10
2023-05-25T09:13:31.093Z,78.80
2023-05-25T09:14:35.449Z,78.64
2023-05-25T09:15:39.854Z,78.39
2023-05-25T09:16:44.198Z,78.70
2023-05-25T09:17:48.589Z,79.03
2023-05-25T09:18:52.956Z,79.06
2023-05-25T09:19:57.386Z,78.83
2023-05-25T09:21:01.884Z,78.29
2023-05-25T09:22:15.086Z,78.12
2023-05-25T09:23:10.485Z,78.12
2023-05-25T09:24:14.857Z,78.43
2023-05-25T09:25:19.280Z,78.21
2023-05-25T09:26:23.584Z,77.84
2023-05-25T09:27:27.944Z,76.67
2023-05-25T09:28:35.320Z,76.16
2023-05-25T09:29:38.844Z,76.67
2023-05-25T09:30:43.439Z,77.18
2023-05-25T09:31:47.694Z,77.24
2023-05-25T09:32:52.068Z,76.79
2023-05-25T09:33:56.484Z,76.81
2023-05-25T09:35:00.903Z,77.10
2023-05-25T09:36:05.418Z,77.38
2023-05-25T09:37:09.936Z,77.31
2023-05-25T09:38:14.330Z,77.69
2023-05-25T09:39:18.647Z,77.65
2023-05-25T09:40:23.002Z,77.85
2023-05-25T09:41:27.386Z,77.18
2023-05-25T09:42:31.716Z,77.01
2023-05-25T09:43:44.739Z,77.10
2023-05-25T09:44:40.562Z,76.03
2023-05-25T09:45:45.009Z,75.91
2023-05-25T09:46:49.406Z,75.10
2023-05-25T09:47:53.879Z,75.35
2023-05-25T09:48:58.174Z,75.45
2023-05-25T09:50:02.609Z,75.65
2023-05-25T09:51:07.025Z,75.91
2023-05-25T09:52:11.434Z,75.84
2023-05-25T09:53:15.823Z,75.20
2023-05-25T09:54:20.159Z,75.38
2023-05-25T09:55:24.555Z,75.32
2023-05-25T09:56:28.904Z,74.80
2023-05-25T09:57:33.395Z,74.24
2023-05-25T09:58:37.720Z,73.23
2023-05-25T09:59:42.095Z,73.34
2023-05-25T10:00:46.868Z,73.61
2023-05-25T10:01:50.978Z,74.32
2023-05-25T10:02:55.280Z,74.98
2023-05-25T10:04:04.352Z,75.52
2023-05-25T10:05:04.197Z,75.09
2023-05-25T10:06:08.403Z,74.95
2023-05-25T10:07:12.775Z,75.26
2023-05-25T10:08:31.247Z,75.11
2023-05-25T10:09:34.588Z,74.64
2023-05-25T10:10:38.970Z,74.45
2023-05-25T10:11:43.480Z,74.11
2023-05-25T10:14:18.102Z,75.25
2023-05-25T10:15:21.634Z,75.35
2023-05-25T10:16:40.080Z,75.48
2023-05-25T10:17:43.447Z,74.60
2023-05-25T10:20:15.228Z,74.09
2023-05-25T10:21:33.622Z,73.69
2023-05-25T10:22:37.063Z,73.31
2023-05-25T10:23:41.344Z,73.74
2023-05-25T10:24:45.626Z,73.87
2023-05-25T10:25:50.100Z,73.61
2023-05-25T10:26:54.469Z,73.49
2023-05-25T10:27:59.657Z,73.14
2023-05-25T10:29:03.318Z,73.47
2023-05-25T10:30:21.785Z,73.20
2023-05-25T10:31:24.982Z,73.03
2023-05-25T10:32:29.270Z,73.24
2023-05-25T10:33:33.631Z,73.16
2023-05-25T10:34:37.933Z,73.05
2023-05-25T10:35:56.207Z,73.10
2023-05-25T10:36:46.791Z,73.09
2023-05-25T10:37:51.086Z,73.43
2023-05-25T10:38:55.468Z,73.14
2023-05-25T10:39:59.911Z,73.16
2023-05-25T10:41:10.255Z,73.15
2023-05-25T10:42:13.474Z,72.58
2023-05-25T10:43:17.790Z,72.37
2023-05-25T10:44:22.122Z,72.71
2023-05-25T10:45:26.553Z,73.04
2023-05-25T10:46:30.906Z,73.23
2023-05-25T10:47:35.258Z,72.92
2023-05-25T10:48:39.683Z,73.03
2023-05-25T10:49:44.151Z,73.25
2023-05-25T10:50:48.511Z,73.48
2023-05-25T10:51:52.957Z,73.22
2023-05-25T10:52:57.242Z,73.24
2023-05-25T10:54:01.619Z,73.24
2023-05-25T10:55:05.987Z,72.78
2023-05-25T10:56:10.445Z,72.98
2023-05-25T10:57:28.801Z,72.73
2023-05-25T10:58:32.087Z,72.33
2023-05-25T10:59:36.356Z,72.41
2023-05-25T11:00:40.887Z,71.79
2023-05-25T11:01:45.211Z,71.00
2023-05-25T11:02:49.644Z,71.12
2023-05-25T11:03:53.958Z,71.65
2023-05-25T11:04:58.284Z,71.96
2023-05-25T11:06:02.863Z,72.04
2023-05-25T11:07:07.105Z,71.19
2023-05-25T11:08:11.564Z,71.20
2023-05-25T11:09:16.001Z,69.68
2023-05-25T11:10:20.439Z,68.89
2023-05-25T11:11:24.788Z,69.72
2023-05-25T11:12:29.254Z,69.34
2023-05-25T11:13:33.878Z,69.39
2023-05-25T11:14:38.094Z,68.72
2023-05-25T11:15:43.011Z,68.13
2023-05-25T11:16:47.007Z,68.57
2023-05-25T11:17:51.491Z,69.08
2023-05-25T11:18:55.798Z,69.64
2023-05-25T11:20:00.406Z,68.81
2023-05-25T11:21:04.757Z,67.69
2023-05-25T11:22:09.134Z,68.33
2023-05-25T11:23:13.513Z,68.49
2023-05-25T11:24:31.925Z,68.18
2023-05-25T11:25:36.688Z,66.65
2023-05-25T11:26:39.543Z,64.40
2023-05-25T11:27:44.031Z,64.23
2023-05-25T11:28:48.419Z,64.46
2023-05-25T11:29:52.820Z,65.33
2023-05-25T11:30:57.291Z,66.12
2023-05-25T11:32:01.659Z,65.49
2023-05-25T11:33:06.111Z,65.60
2023-05-25T11:34:10.495Z,65.47
2023-05-25T11:35:14.953Z,65.22
2023-05-25T11:36:19.398Z,63.81
2023-05-25T11:37:23.795Z,64.13
2023-05-25T11:38:28.285Z,64.09
2023-05-25T11:39:32.629Z,64.43
2023-05-25T11:40:47.567Z,64.35
2023-05-25T11:41:41.341Z,64.80
2023-05-25T11:42:45.688Z,65.48
2023-05-25T11:43:50.165Z,66.04
2023-05-25T11:44:54.526Z,65.08
2023-05-25T11:45:59.008Z,64.58
2023-05-25T11:47:03.391Z,64.89
2023-05-25T11:48:07.900Z,65.29
2023-05-25T11:49:12.151Z,65.41
2023-05-25T11:50:16.534Z,65.05
2023-05-25T11:51:34.937Z,64.90
2023-05-25T11:52:38.134Z,64.63
2023-05-25T11:53:42.572Z,64.83
2023-05-25T11:54:46.915Z,65.45
2023-05-25T11:55:55.611Z,65.36
2023-05-25T11:57:09.733Z,65.59
2023-05-25T11:58:13.194Z,65.95
2023-05-25T11:59:17.510Z,66.07
2023-05-25T12:00:21.849Z,65.90
2023-05-25T12:01:26.318Z,65.81
2023-05-25T12:02:30.640Z,66.09
2023-05-25T12:03:35.115Z,66.50
2023-05-25T12:04:39.560Z,65.67
2023-05-25T12:05:43.927Z,65.02
2023-05-25T12:06:48.202Z,65.59
2023-05-25T12:07:52.549Z,66.54
2023-05-25T12:08:56.947Z,66.47
2023-05-25T12:10:01.341Z,66.30
2023-05-25T12:11:05.773Z,65.84
2023-05-25T12:12:10.189Z,66.11
2023-05-25T12:13:14.489Z,66.20
2023-05-25T12:14:18.931Z,66.60
2023-05-25T12:15:37.396Z,66.40
2023-05-25T12:16:40.831Z,66.74
2023-05-25T12:17:45.197Z,66.73
2023-05-25T12:18:49.494Z,66.80
2023-05-25T12:19:53.974Z,66.44
2023-05-25T12:20:58.417Z,66.26
2023-05-25T12:22:02.687Z,66.24
2023-05-25T12:23:07.119Z,66.65
2023-05-25T12:24:11.454Z,66.45
2023-05-25T12:25:15.829Z,66.48
2023-05-25T12:26:20.225Z,66.19
2023-05-25T12:27:24.625Z,66.57
2023-05-25T12:28:29.061Z,66.67
2023-05-25T12:29:33.567Z,66.66
2023-05-25T12:30:38.020Z,66.98
2023-05-25T12:31:42.398Z,67.45
2023-05-25T12:32:46.814Z,67.41
2023-05-25T12:33:51.110Z,67.34
2023-05-25T12:34:55.574Z,66.53
2023-05-25T12:35:59.940Z,66.48
2023-05-25T12:37:04.313Z,66.05
2023-05-25T12:38:08.709Z,66.01
2023-05-25T12:39:13.224Z,65.10
2023-05-25T12:40:17.649Z,65.15
2023-05-25T12:41:21.981Z,65.23
2023-05-25T12:42:26.479Z,65.08
2023-05-25T12:43:30.869Z,64.13
2023-05-25T12:44:35.352Z,63.22
2023-05-25T12:45:39.723Z,62.16
2023-05-25T12:46:44.261Z,62.95
2023-05-25T12:47:48.693Z,63.85
2023-05-25T12:48:53.058Z,63.79
2023-05-25T12:49:57.529Z,64.09
2023-05-25T12:51:16.032Z,64.14
2023-05-25T12:52:19.498Z,64.09
2023-05-25T12:53:23.745Z,62.95
2023-05-25T12:54:28.226Z,62.16
2023-05-25T12:55:46.685Z,61.13
2023-05-25T12:56:50.054Z,60.17
2023-05-25T12:57:54.417Z,61.23
2023-05-25T12:58:58.872Z,61.24
2023-05-25T13:00:03.171Z,62.36
2023-05-25T13:01:07.569Z,62.89
2023-05-25T13:02:12.084Z,63.01
2023-05-25T13:03:16.586Z,62.88
2023-05-25T13:04:20.884Z,63.37
2023-05-25T13:05:25.426Z,63.66
2023-05-25T13:06:29.710Z,63.56
2023-05-25T13:07:34.116Z,63.27
2023-05-25T13:08:38.559Z,63.33
2023-05-25T13:09:49.039Z,62.87
2023-05-25T13:10:51.966Z,62.63
2023-05-25T13:11:56.429Z,62.75
2023-05-25T13:13:01.015Z,63.00
2023-05-25T13:14:05.198Z,63.63
2023-05-25T13:15:09.669Z,63.23
2023-05-25T13:16:14.138Z,63.30
2023-05-25T13:17:18.626Z,63.35
2023-05-25T13:18:22.917Z,63.34
2023-05-25T13:19:33.484Z,63.35
2023-05-25T13:20:36.638Z,63.66
2023-05-25T13:21:40.952Z,63.39
2023-05-25T13:22:45.266Z,63.58
2023-05-25T13:23:49.807Z,63.95
2023-05-25T13:24:54.271Z,64.01
2023-05-25T13:25:58.666Z,64.28
2023-05-25T13:27:03.009Z,63.88
2023-05-25T13:28:07.387Z,64.10
2023-05-25T13:29:11.767Z,64.34
2023-05-25T13:30:16.167Z,63.30
2023-05-25T13:31:20.565Z,63.33
2023-05-25T13:32:24.981Z,63.46
2023-05-25T13:33:29.261Z,64.06
2023-05-25T13:34:33.825Z,64.42
2023-05-25T13:35:38.302Z,64.44
2023-05-25T13:36:42.695Z,64.01
2023-05-25T13:37:47.090Z,63.67
2023-05-25T13:38:51.513Z,63.32
2023-05-25T13:39:55.920Z,63.38
2023-05-25T13:41:00.299Z,64.12
2023-05-25T13:42:04.798Z,64.48
2023-05-25T13:43:09.195Z,64.30
2023-05-25T13:44:15.128Z,64.65
2023-05-25T13:45:18.211Z,64.75
2023-05-25T13:46:36.392Z,64.86
2023-05-25T13:47:39.766Z,64.98
2023-05-25T13:48:43.970Z,65.25
2023-05-25T13:49:54.413Z,65.18
2023-05-25T13:50:57.452Z,65.11
2023-05-25T13:52:01.837Z,65.31
2023-05-25T13:53:06.230Z,65.30
2023-05-25T13:54:10.598Z,65.33
2023-05-25T13:55:15.005Z,65.62
2023-05-25T13:56:19.419Z,65.63
2023-05-25T13:57:23.775Z,65.63